Time;durP1;ratioP1;P1;durP2;ratioP2;P2;SDS_P1;SDS_P2;PMS_P1;PMS_P2;Temp;Humidity;BMP_temperature;BMP_pressure;BME280_temperature;BME280_humidity;BME280_pressure;Samples;Min_cycle;Max_cycle;Signal;HPM_P1;HPM_P2
2022/10/20 00:00:12;;;;;;;8.23;4.47;;;6.50;99.90;;;;;;5024727;28;20128;-67
2022/10/20 00:02:38;;;;;;;8.43;4.45;;;6.40;99.90;;;;;;5025647;28;20075;-67
2022/10/20 00:05:04;;;;;;;6.83;4.30;;;6.40;99.90;;;;;;5007793;28;20608;-67
2022/10/20 00:07:29;;;;;;;10.90;4.13;;;6.40;99.90;;;;;;5018436;28;20044;-67
2022/10/20 00:09:55;;;;;;;11.10;4.67;;;6.40;99.90;;;;;;5027005;28;20583;-67
2022/10/20 00:12:21;;;;;;;13.50;5.07;;;6.40;99.90;;;;;;5023535;28;20136;-67
2022/10/20 00:14:46;;;;;;;8.77;4.33;;;6.30;99.90;;;;;;5024762;28;20374;-67
2022/10/20 00:17:12;;;;;;;12.10;5.50;;;6.30;99.90;;;;;;5022388;28;20119;-67
2022/10/20 00:19:38;;;;;;;8.37;4.00;;;6.30;99.90;;;;;;5024848;28;20041;-67
2022/10/20 00:22:03;;;;;;;13.70;4.40;;;6.30;99.90;;;;;;5008190;28;20111;-67
2022/10/20 00:24:29;;;;;;;9.40;4.77;;;6.30;99.90;;;;;;5017367;28;20337;-67
2022/10/20 00:26:55;;;;;;;9.10;4.60;;;6.30;99.90;;;;;;5024701;28;20041;-67
2022/10/20 00:29:20;;;;;;;10.23;4.30;;;6.30;99.90;;;;;;5028185;28;20547;-67
2022/10/20 00:31:46;;;;;;;9.43;3.97;;;6.20;99.90;;;;;;5033758;28;20587;-67
2022/10/20 00:34:12;;;;;;;10.63;4.37;;;6.20;99.90;;;;;;5008232;28;20041;-67
2022/10/20 00:36:38;;;;;;;9.13;3.87;;;6.20;99.90;;;;;;5024547;28;20084;-67
2022/10/20 00:39:05;;;;;;;8.95;4.18;;;6.20;99.90;;;;;;5024411;28;20056;-67
2022/10/20 00:41:32;;;;;;;9.63;4.68;;;6.20;99.90;;;;;;5024739;28;20045;-67
2022/10/20 00:44:22;;;;;;;9.02;4.38;;;6.20;99.90;;;;;;5024849;28;20045;-67
2022/10/20 00:46:48;;;;;;;6.05;3.92;;;6.20;99.90;;;;;;4974352;28;20497;-67
2022/10/20 00:49:20;;;;;;;11.60;4.40;;;6.20;99.90;;;;;;5024781;28;20049;-67
2022/10/20 00:51:45;;;;;;;12.73;4.90;;;6.20;99.90;;;;;;5040747;28;20050;-67
2022/10/20 00:54:17;;;;;;;12.13;4.40;;;6.20;99.90;;;;;;5032141;28;20053;-67
2022/10/20 00:56:46;;;;;;;9.23;4.25;;;6.20;99.90;;;;;;5027165;28;20048;-67
2022/10/20 00:59:15;;;;;;;6.53;4.13;;;6.20;99.90;;;;;;5024654;28;20371;-67
2022/10/20 01:01:42;;;;;;;10.32;5.10;;;6.20;99.90;;;;;;5025170;28;20492;-67
2022/10/20 01:04:08;;;;;;;8.90;4.72;;;6.20;99.90;;;;;;5033486;28;20333;-67
2022/10/20 01:06:34;;;;;;;10.67;4.53;;;6.10;99.90;;;;;;5039283;28;20076;-67
2022/10/20 01:09:00;;;;;;;9.50;4.40;;;6.20;99.90;;;;;;5034276;28;20106;-67
2022/10/20 01:11:30;;;;;;;7.60;4.20;;;6.20;99.90;;;;;;5036833;28;20497;-67
2022/10/20 01:14:15;;;;;;;10.73;4.65;;;6.10;99.90;;;;;;5042840;28;20598;-67
2022/10/20 01:16:54;;;;;;;10.18;4.47;;;6.10;99.90;;;;;;5036109;28;20045;-67
2022/10/20 01:19:39;;;;;;;11.98;5.03;;;6.10;99.90;;;;;;5034662;28;20518;-67
2022/10/20 01:22:38;;;;;;;8.70;4.05;;;6.00;99.90;;;;;;5024621;28;20060;-67
2022/10/20 01:25:16;;;;;;;8.50;4.43;;;6.00;99.90;;;;;;5038360;28;20045;-67
2022/10/20 01:27:48;;;;;;;8.07;4.43;;;6.00;99.90;;;;;;5007782;28;20064;-67
2022/10/20 01:30:20;;;;;;;9.18;4.20;;;5.90;99.90;;;;;;5007437;28;20562;-67
2022/10/20 01:33:06;;;;;;;10.65;4.50;;;5.90;99.90;;;;;;5023846;28;20176;-67
2022/10/20 01:36:02;;;;;;;9.15;4.40;;;5.90;99.90;;;;;;5023310;28;20250;-67
2022/10/20 01:38:47;;;;;;;9.25;4.68;;;5.90;99.90;;;;;;5024111;28;20038;-67
2022/10/20 01:41:24;;;;;;;10.88;4.40;;;5.90;99.90;;;;;;5012445;28;20412;-67
2022/10/20 01:43:51;;;;;;;11.55;4.35;;;5.80;99.90;;;;;;5023938;28;20049;-67
2022/10/20 01:46:20;;;;;;;12.38;4.32;;;5.80;99.90;;;;;;5023451;28;20585;-67
2022/10/20 01:48:47;;;;;;;9.23;4.82;;;5.80;99.90;;;;;;5023392;28;20077;-67
2022/10/20 01:51:13;;;;;;;10.40;4.53;;;5.80;99.90;;;;;;5023256;28;20029;-67
2022/10/20 01:53:39;;;;;;;9.67;4.73;;;5.80;99.90;;;;;;5023856;28;20527;-67
2022/10/20 01:56:11;;;;;;;7.57;3.90;;;5.80;99.90;;;;;;5023147;28;20057;-67
2022/10/20 01:58:46;;;;;;;8.30;4.40;;;5.80;99.90;;;;;;5023561;28;20046;-67
2022/10/20 02:01:17;;;;;;;12.65;4.40;;;5.80;99.90;;;;;;5022981;28;20076;-67
2022/10/20 02:03:53;;;;;;;7.22;4.43;;;5.70;99.90;;;;;;5021828;28;20496;-67
2022/10/20 02:07:00;;;;;;;6.53;4.10;;;5.80;99.90;;;;;;5022319;28;20103;-67
2022/10/20 02:09:37;;;;;;;9.40;4.55;;;5.80;99.90;;;;;;4992570;28;20069;-67
2022/10/20 02:12:07;;;;;;;8.98;5.00;;;5.80;99.90;;;;;;5023734;28;20555;-67
2022/10/20 02:14:34;;;;;;;11.25;4.53;;;5.70;99.90;;;;;;5023157;28;20057;-67
2022/10/20 02:17:05;;;;;;;9.23;4.80;;;5.70;99.90;;;;;;5026149;28;20076;-67
2022/10/20 02:19:36;;;;;;;13.30;4.97;;;5.70;99.90;;;;;;5027042;28;20042;-67
2022/10/20 02:22:03;;;;;;;12.30;5.40;;;5.70;99.90;;;;;;5010793;28;20038;-67
2022/10/20 02:24:35;;;;;;;8.85;4.97;;;5.70;99.90;;;;;;5036294;28;20497;-67
2022/10/20 02:27:04;;;;;;;10.55;4.72;;;5.70;99.90;;;;;;5026921;28;20041;-67
2022/10/20 02:29:35;;;;;;;9.95;4.97;;;5.70;99.90;;;;;;5027317;28;20037;-67
2022/10/20 02:32:01;;;;;;;8.18;4.85;;;5.60;99.90;;;;;;5027506;28;20102;-67
2022/10/20 02:34:27;;;;;;;9.07;4.23;;;5.60;99.90;;;;;;5027091;28;20045;-67
2022/10/20 02:36:57;;;;;;;9.07;5.13;;;5.60;99.90;;;;;;5026772;28;20276;-67
2022/10/20 02:39:23;;;;;;;10.23;4.90;;;5.60;99.90;;;;;;5026592;28;20037;-67
2022/10/20 02:41:49;;;;;;;9.02;4.50;;;5.60;99.90;;;;;;5039387;28;20074;-67
2022/10/20 02:44:15;;;;;;;9.37;4.70;;;5.60;99.90;;;;;;5025741;28;20053;-67
2022/10/20 02:46:40;;;;;;;8.07;4.47;;;5.60;99.90;;;;;;5035559;28;20081;-67
2022/10/20 02:49:06;;;;;;;8.00;4.50;;;5.70;99.90;;;;;;5026591;28;20484;-67
2022/10/20 02:51:32;;;;;;;8.87;4.07;;;5.60;99.90;;;;;;5023254;28;20497;-67
2022/10/20 02:53:57;;;;;;;11.93;4.40;;;5.60;99.90;;;;;;5026837;28;20072;-67
2022/10/20 02:56:23;;;;;;;14.17;6.07;;;5.60;99.90;;;;;;5038295;28;20513;-67
2022/10/20 02:58:49;;;;;;;7.63;4.43;;;5.60;99.90;;;;;;5015786;28;20133;-67
2022/10/20 03:01:15;;;;;;;8.23;4.10;;;5.60;99.90;;;;;;5036404;28;20060;-67
2022/10/20 03:03:41;;;;;;;9.43;4.50;;;5.60;99.90;;;;;;5035365;28;20067;-67
2022/10/20 03:06:14;;;;;;;11.80;4.70;;;5.60;99.90;;;;;;5032258;28;20049;-67
2022/10/20 03:08:40;;;;;;;9.10;4.85;;;5.60;99.90;;;;;;5032728;28;20044;-67
2022/10/20 03:11:06;;;;;;;8.18;4.43;;;5.60;99.90;;;;;;5032082;28;20037;-67
2022/10/20 03:13:32;;;;;;;7.80;4.40;;;5.60;99.90;;;;;;5038996;28;20056;-67
2022/10/20 03:15:58;;;;;;;10.80;4.80;;;5.60;99.90;;;;;;5026399;28;20037;-67
2022/10/20 03:18:24;;;;;;;7.78;4.10;;;5.60;99.90;;;;;;5025944;28;20061;-68
2022/10/20 03:20:51;;;;;;;11.13;4.27;;;5.60;99.90;;;;;;5025919;28;20045;-67
2022/10/20 03:23:17;;;;;;;10.48;4.78;;;5.60;99.90;;;;;;5029060;28;20072;-67
2022/10/20 03:25:42;;;;;;;7.50;4.70;;;5.60;99.90;;;;;;5031176;28;20081;-67
2022/10/20 03:28:08;;;;;;;9.03;4.13;;;5.70;99.90;;;;;;5026003;28;20041;-67
2022/10/20 03:30:34;;;;;;;9.77;4.30;;;5.70;99.90;;;;;;5009503;28;20252;-67
2022/10/20 03:32:59;;;;;;;8.63;4.83;;;5.70;99.90;;;;;;5006839;28;20046;-67
2022/10/20 03:35:25;;;;;;;10.83;4.57;;;5.70;99.90;;;;;;5020490;28;20048;-67
2022/10/20 03:37:51;;;;;;;10.90;5.27;;;5.60;99.90;;;;;;5009579;28;20046;-67
2022/10/20 03:40:17;;;;;;;10.23;5.43;;;5.60;99.90;;;;;;5025671;28;20349;-67
2022/10/20 03:42:42;;;;;;;7.47;4.35;;;5.60;99.90;;;;;;5026104;28;20049;-67
2022/10/20 03:45:08;;;;;;;8.53;4.43;;;5.60;99.90;;;;;;5025300;28;20041;-67
2022/10/20 03:47:34;;;;;;;8.90;4.78;;;5.60;99.90;;;;;;5025919;28;20061;-67
2022/10/20 03:50:00;;;;;;;10.03;5.07;;;5.60;99.90;;;;;;5038018;28;20037;-67
2022/10/20 03:52:25;;;;;;;10.00;4.80;;;5.60;99.90;;;;;;5033783;28;20052;-67
2022/10/20 03:54:51;;;;;;;10.07;4.73;;;5.60;99.90;;;;;;5030552;28;20084;-67
2022/10/20 03:57:18;;;;;;;9.80;4.50;;;5.60;99.90;;;;;;5008781;28;20049;-67
2022/10/20 03:59:44;;;;;;;10.18;4.60;;;5.60;99.90;;;;;;5025258;28;20274;-67
2022/10/20 04:02:28;;;;;;;10.00;4.80;;;5.60;99.90;;;;;;5025431;28;20037;-67
2022/10/20 04:04:54;;;;;;;12.65;5.15;;;5.60;99.90;;;;;;5025563;28;20247;-67
2022/10/20 04:07:20;;;;;;;10.97;5.10;;;5.60;99.90;;;;;;5025727;28;20045;-67
2022/10/20 04:09:45;;;;;;;9.97;4.93;;;5.50;99.90;;;;;;5024922;28;20091;-67
2022/10/20 04:12:11;;;;;;;10.03;5.30;;;5.60;99.90;;;;;;5025252;28;20049;-67
2022/10/20 04:14:37;;;;;;;9.27;4.87;;;5.60;99.90;;;;;;5025351;28;20156;-67
2022/10/20 04:17:02;;;;;;;9.20;4.97;;;5.60;99.90;;;;;;5025415;28;20037;-67
2022/10/20 04:19:28;;;;;;;10.33;4.73;;;5.60;99.90;;;;;;5008698;28;20364;-67
2022/10/20 04:21:54;;;;;;;13.37;5.03;;;5.60;99.90;;;;;;5009212;28;20403;-67
2022/10/20 04:24:19;;;;;;;11.23;6.13;;;5.50;99.90;;;;;;5014156;28;20386;-67
2022/10/20 04:26:47;;;;;;;9.33;5.00;;;5.50;99.90;;;;;;5028341;28;20337;-67
2022/10/20 04:29:12;;;;;;;12.23;5.85;;;5.50;99.90;;;;;;5024594;28;20439;-67
2022/10/20 04:31:38;;;;;;;8.20;5.43;;;5.50;99.90;;;;;;5005063;28;20123;-67
2022/10/20 04:34:04;;;;;;;11.23;6.20;;;5.50;99.90;;;;;;5021620;28;20084;-67
2022/10/20 04:36:29;;;;;;;9.00;5.70;;;5.50;99.90;;;;;;5008024;28;20441;-67
2022/10/20 04:38:55;;;;;;;11.83;5.60;;;5.50;99.90;;;;;;5023714;28;20064;-67
2022/10/20 04:41:21;;;;;;;10.37;5.83;;;5.50;99.90;;;;;;5024668;28;20049;-67
2022/10/20 04:43:51;;;;;;;11.40;6.03;;;5.50;99.90;;;;;;5024595;28;20073;-67
2022/10/20 04:46:17;;;;;;;9.70;6.05;;;5.50;99.90;;;;;;5008060;28;20045;-67
2022/10/20 04:48:43;;;;;;;13.45;5.50;;;5.50;99.90;;;;;;5024512;28;20103;-67
2022/10/20 04:51:11;;;;;;;11.00;6.87;;;5.50;99.90;;;;;;5020820;28;20350;-67
2022/10/20 04:53:37;;;;;;;10.45;5.78;;;5.50;99.90;;;;;;5022219;28;20281;-67
2022/10/20 04:56:05;;;;;;;10.67;6.50;;;5.50;99.90;;;;;;5040785;28;20050;-67
2022/10/20 04:58:30;;;;;;;13.25;6.60;;;5.50;99.90;;;;;;5024618;28;20068;-67
2022/10/20 05:01:14;;;;;;;11.07;6.03;;;5.50;99.90;;;;;;5024538;28;20493;-67
2022/10/20 05:03:40;;;;;;;10.27;6.43;;;5.50;99.90;;;;;;5013427;28;20048;-68
2022/10/20 05:06:15;;;;;;;12.87;6.57;;;5.50;99.90;;;;;;5007991;28;20045;-67
2022/10/20 05:08:43;;;;;;;12.25;7.07;;;5.60;99.90;;;;;;5008213;28;20046;-68
2022/10/20 05:11:09;;;;;;;13.85;6.90;;;5.50;99.90;;;;;;5007356;28;20072;-68
2022/10/20 05:13:35;;;;;;;11.57;6.53;;;5.50;99.90;;;;;;5024389;28;20045;-68
2022/10/20 05:16:02;;;;;;;12.77;6.77;;;5.50;99.90;;;;;;5024398;28;20451;-68
2022/10/20 05:18:28;;;;;;;14.30;7.22;;;5.50;99.90;;;;;;5008017;28;20309;-67
2022/10/20 05:20:54;;;;;;;14.55;6.93;;;5.50;99.90;;;;;;5024314;28;20446;-67
2022/10/20 05:23:19;;;;;;;10.32;6.75;;;5.60;99.90;;;;;;5024185;28;20048;-67
2022/10/20 05:25:45;;;;;;;10.30;7.60;;;5.60;99.90;;;;;;5023928;28;20052;-68
2022/10/20 05:28:11;;;;;;;14.43;7.53;;;5.60;99.90;;;;;;5023539;28;20078;-67
2022/10/20 05:30:37;;;;;;;10.50;7.37;;;5.50;99.90;;;;;;5021151;28;20329;-67
2022/10/20 05:33:03;;;;;;;12.18;7.95;;;5.60;99.90;;;;;;5024371;28;20401;-67
2022/10/20 05:35:29;;;;;;;12.93;8.03;;;5.60;99.90;;;;;;5024371;28;20038;-67
2022/10/20 05:37:55;;;;;;;11.98;7.63;;;5.60;99.90;;;;;;5023890;28;20069;-67
2022/10/20 05:40:22;;;;;;;16.48;8.05;;;5.60;99.90;;;;;;5023619;28;20048;-67
2022/10/20 05:42:48;;;;;;;13.68;7.75;;;5.60;99.90;;;;;;5007211;28;20045;-67
2022/10/20 05:45:14;;;;;;;12.13;7.70;;;5.60;99.90;;;;;;5023732;28;20377;-67
2022/10/20 05:47:41;;;;;;;12.10;8.10;;;5.60;99.90;;;;;;5006668;28;20056;-67
2022/10/20 05:50:08;;;;;;;13.15;8.77;;;5.50;99.90;;;;;;5036743;28;20429;-67
2022/10/20 05:52:34;;;;;;;13.52;8.38;;;5.60;99.90;;;;;;5034600;28;20045;-67
2022/10/20 05:55:00;;;;;;;13.43;8.73;;;5.60;99.90;;;;;;5023127;28;20049;-67
2022/10/20 05:57:25;;;;;;;14.93;9.27;;;5.60;99.90;;;;;;5004381;28;20081;-67
2022/10/20 05:59:51;;;;;;;14.60;8.27;;;5.60;99.90;;;;;;5022274;28;20051;-67
2022/10/20 06:02:17;;;;;;;13.53;8.47;;;5.60;99.90;;;;;;5023137;28;20136;-67
2022/10/20 06:04:43;;;;;;;14.53;9.00;;;5.60;99.90;;;;;;5023083;28;20484;-67
2022/10/20 06:07:11;;;;;;;13.57;8.73;;;5.60;99.90;;;;;;5023300;28;20125;-67
2022/10/20 06:09:38;;;;;;;15.43;9.68;;;5.60;99.90;;;;;;5022113;28;20037;-67
2022/10/20 06:12:04;;;;;;;14.40;8.52;;;5.60;99.90;;;;;;5023381;28;20038;-67
2022/10/20 06:14:30;;;;;;;13.20;9.20;;;5.60;99.90;;;;;;5039209;28;20485;-67
2022/10/20 06:16:56;;;;;;;15.63;9.07;;;5.60;99.90;;;;;;5022170;28;20042;-67
2022/10/20 06:19:23;;;;;;;15.70;8.73;;;5.60;99.90;;;;;;5034549;28;20056;-67
2022/10/20 06:21:49;;;;;;;16.02;9.75;;;5.60;99.90;;;;;;5023575;28;20132;-67
2022/10/20 06:24:17;;;;;;;13.93;9.60;;;5.60;99.90;;;;;;5031510;28;20056;-67
2022/10/20 06:26:43;;;;;;;14.52;10.30;;;5.60;99.90;;;;;;5023353;28;20121;-67
2022/10/20 06:29:13;;;;;;;16.35;9.95;;;5.70;99.90;;;;;;5022733;28;20273;-67
2022/10/20 06:31:44;;;;;;;16.85;9.48;;;5.70;99.90;;;;;;5021553;28;20493;-67
2022/10/20 06:34:16;;;;;;;15.27;9.70;;;5.70;99.90;;;;;;5025892;28;20559;-67
2022/10/20 06:36:43;;;;;;;17.27;9.13;;;5.80;99.90;;;;;;5023005;28;20037;-67
2022/10/20 06:39:13;;;;;;;16.73;10.57;;;5.80;99.90;;;;;;5022468;28;20518;-67
2022/10/20 06:41:39;;;;;;;14.25;9.98;;;5.80;99.90;;;;;;5023137;28;20042;-67
2022/10/20 06:44:06;;;;;;;15.82;9.95;;;5.80;99.90;;;;;;5023134;28;20048;-67
2022/10/20 06:46:35;;;;;;;16.95;10.10;;;5.90;99.90;;;;;;5013464;28;20049;-67
2022/10/20 06:49:03;;;;;;;15.85;10.27;;;5.90;99.90;;;;;;5004581;28;20037;-67
2022/10/20 06:51:29;;;;;;;19.83;10.38;;;5.90;99.90;;;;;;5023251;28;21429;-67
2022/10/20 06:53:54;;;;;;;18.35;10.18;;;6.00;99.90;;;;;;5042835;28;20623;-67
2022/10/20 06:56:26;;;;;;;18.33;10.37;;;6.00;99.90;;;;;;5022236;28;20042;-67
2022/10/20 06:58:53;;;;;;;14.57;9.65;;;6.00;99.90;;;;;;5025972;28;20041;-68
2022/10/20 07:01:24;;;;;;;17.90;9.95;;;6.00;99.90;;;;;;5023554;28;20438;-68
2022/10/20 07:03:52;;;;;;;14.88;9.70;;;6.10;99.90;;;;;;5025778;28;20048;-68
2022/10/20 07:06:29;;;;;;;15.38;10.32;;;6.10;99.90;;;;;;5017152;28;20385;-68
2022/10/20 07:08:56;;;;;;;16.23;9.90;;;6.20;99.90;;;;;;5033030;28;20112;-67
2022/10/20 07:11:27;;;;;;;19.08;10.82;;;6.20;99.90;;;;;;5009658;28;20029;-67
2022/10/20 07:13:53;;;;;;;14.75;9.85;;;6.30;99.90;;;;;;5027940;28;20052;-67
2022/10/20 07:16:22;;;;;;;14.67;10.13;;;6.30;99.90;;;;;;5025506;28;20033;-67
2022/10/20 07:18:48;;;;;;;15.48;10.40;;;6.30;99.90;;;;;;5030095;28;20049;-67
2022/10/20 07:21:16;;;;;;;17.50;10.07;;;6.30;99.90;;;;;;4996412;28;20400;-67
2022/10/20 07:23:42;;;;;;;16.15;11.50;;;6.40;99.90;;;;;;5035282;28;20048;-68
2022/10/20 07:26:20;;;;;;;18.43;11.23;;;6.40;99.90;;;;;;5032000;28;20511;-68
2022/10/20 07:28:50;;;;;;;13.85;10.60;;;6.40;99.90;;;;;;5031435;28;20288;-68
2022/10/20 07:31:34;;;;;;;18.50;10.73;;;6.40;99.90;;;;;;5024763;28;20033;-68
2022/10/20 07:34:00;;;;;;;18.92;10.93;;;6.40;99.90;;;;;;5028419;28;20061;-68
2022/10/20 07:36:29;;;;;;;14.05;10.40;;;6.50;99.90;;;;;;5021264;28;20378;-68
2022/10/20 07:38:57;;;;;;;16.42;10.35;;;6.60;99.90;;;;;;5025559;28;20061;-68
2022/10/20 07:41:23;;;;;;;16.13;10.50;;;6.60;99.90;;;;;;5034228;28;20132;-68
2022/10/20 07:43:49;;;;;;;15.77;11.05;;;6.70;99.90;;;;;;5023452;28;20887;-68
2022/10/20 07:46:15;;;;;;;19.03;10.47;;;6.70;99.90;;;;;;5024998;28;20060;-68
2022/10/20 07:48:41;;;;;;;16.17;10.77;;;6.80;99.90;;;;;;5018826;28;20045;-68
2022/10/20 07:51:15;;;;;;;15.55;10.75;;;6.90;99.90;;;;;;5024810;28;20045;-67
2022/10/20 07:53:41;;;;;;;15.02;10.82;;;6.90;99.90;;;;;;5026600;28;20069;-68
2022/10/20 07:56:07;;;;;;;14.30;10.70;;;6.90;99.90;;;;;;5025518;28;20053;-67
2022/10/20 07:58:33;;;;;;;14.65;10.80;;;7.00;99.90;;;;;;5025028;28;20053;-68
2022/10/20 08:00:59;;;;;;;20.10;10.70;;;7.00;99.90;;;;;;5012010;28;20076;-68
2022/10/20 08:03:25;;;;;;;17.37;11.17;;;7.10;99.90;;;;;;5022454;28;20049;-68
2022/10/20 08:05:50;;;;;;;16.87;11.50;;;7.10;99.90;;;;;;5026123;28;20504;-69
2022/10/20 08:08:16;;;;;;;16.40;10.40;;;7.20;99.90;;;;;;5025219;28;20053;-68
2022/10/20 08:10:42;;;;;;;17.93;11.10;;;7.20;99.90;;;;;;5010970;28;20068;-68
2022/10/20 08:13:07;;;;;;;16.00;10.50;;;7.30;99.90;;;;;;5024968;28;20041;-68
2022/10/20 08:15:33;;;;;;;17.83;10.30;;;7.30;99.90;;;;;;5021561;28;20160;-68
2022/10/20 08:17:59;;;;;;;17.63;10.33;;;7.40;99.90;;;;;;5022862;28;20280;-68
2022/10/20 08:20:24;;;;;;;16.00;10.27;;;7.50;99.90;;;;;;5021379;28;20416;-68
2022/10/20 08:22:50;;;;;;;16.77;11.10;;;7.50;99.90;;;;;;5023765;28;20041;-68
2022/10/20 08:25:16;;;;;;;14.33;10.33;;;7.60;99.90;;;;;;5005663;28;20476;-68
2022/10/20 08:27:42;;;;;;;14.27;10.52;;;7.70;99.90;;;;;;5023433;28;20068;-68
2022/10/20 08:30:08;;;;;;;14.87;10.33;;;7.80;99.90;;;;;;5021762;28;20469;-68
2022/10/20 08:32:34;;;;;;;18.88;10.95;;;7.90;99.90;;;;;;4989643;28;20153;-68
2022/10/20 08:35:00;;;;;;;16.02;11.10;;;8.00;99.90;;;;;;5022783;28;20474;-68
2022/10/20 08:37:29;;;;;;;19.98;12.20;;;8.10;99.90;;;;;;5025704;28;20341;-68
2022/10/20 08:39:55;;;;;;;12.65;9.90;;;8.20;99.90;;;;;;5005040;28;20041;-68
2022/10/20 08:42:22;;;;;;;14.07;9.83;;;8.30;99.90;;;;;;5033304;28;20051;-68
2022/10/20 08:44:49;;;;;;;15.25;10.27;;;8.40;99.90;;;;;;5006156;28;20376;-68
2022/10/20 08:47:23;;;;;;;16.58;10.48;;;8.60;99.90;;;;;;5017938;28;20040;-68
2022/10/20 08:49:49;;;;;;;13.50;9.70;;;8.70;99.20;;;;;;5020932;28;20092;-68
2022/10/20 08:52:17;;;;;;;12.90;10.52;;;8.80;98.40;;;;;;5020964;28;20045;-69
2022/10/20 08:54:43;;;;;;;14.30;10.02;;;8.90;98.10;;;;;;5016797;28;20053;-69
2022/10/20 08:57:22;;;;;;;13.65;9.57;;;8.90;98.10;;;;;;5031776;28;20128;-68
2022/10/20 08:59:55;;;;;;;15.68;10.50;;;8.90;95.60;;;;;;5026850;28;20124;-67
2022/10/20 09:02:21;;;;;;;13.23;9.93;;;8.90;96.30;;;;;;5031170;28;20132;-67
2022/10/20 09:04:54;;;;;;;11.75;9.13;;;8.90;96.10;;;;;;5020581;28;20041;-67
2022/10/20 09:07:34;;;;;;;12.88;9.45;;;8.80;96.00;;;;;;5028106;28;20037;-67
2022/10/20 09:10:15;;;;;;;12.88;9.27;;;8.90;96.40;;;;;;5020935;28;20091;-67
2022/10/20 09:12:45;;;;;;;14.80;9.80;;;8.90;96.70;;;;;;5020153;28;20120;-67
2022/10/20 09:15:12;;;;;;;16.67;9.73;;;8.90;96.80;;;;;;5007105;28;20047;-67
2022/10/20 09:17:54;;;;;;;12.77;9.05;;;9.00;96.40;;;;;;5020996;28;20033;-67
2022/10/20 09:20:29;;;;;;;14.95;9.82;;;9.10;96.10;;;;;;5011192;28;20289;-67
2022/10/20 09:22:54;;;;;;;16.13;9.68;;;9.10;96.00;;;;;;5023712;28;20045;-67
2022/10/20 09:25:24;;;;;;;13.50;9.73;;;9.20;96.20;;;;;;5003053;28;20080;-67
2022/10/20 09:27:50;;;;;;;13.38;9.27;;;9.30;96.30;;;;;;5020264;28;20041;-67
2022/10/20 09:30:28;;;;;;;13.13;9.45;;;9.50;96.50;;;;;;5019899;28;20048;-67
2022/10/20 09:32:54;;;;;;;12.38;9.75;;;9.70;95.90;;;;;;5021469;28;20424;-67
2022/10/20 09:35:29;;;;;;;14.03;9.30;;;9.80;95.20;;;;;;5021795;28;20494;-68
2022/10/20 09:38:03;;;;;;;;;;;9.90;94.70;;;;;;5017174;28;20045;-67
2022/10/20 09:40:29;;;;;;;13.85;9.52;;;10.00;92.90;;;;;;5005639;28;19936;-67
2022/10/20 09:43:09;;;;;;;13.50;9.48;;;10.00;93.70;;;;;;5006669;28;20059;-67
2022/10/20 09:45:46;;;;;;;11.32;9.38;;;10.20;93.20;;;;;;5021062;28;20041;-67
2022/10/20 09:48:23;;;;;;;11.40;9.02;;;10.40;93.30;;;;;;5028830;28;20037;-67
2022/10/20 09:50:54;;;;;;;11.30;8.20;;;10.50;91.60;;;;;;5004775;28;20128;-67
2022/10/20 09:53:34;;;;;;;10.23;8.93;;;10.50;91.20;;;;;;5022045;28;20096;-67
2022/10/20 09:56:01;;;;;;;11.00;7.68;;;10.60;89.20;;;;;;5019452;28;20049;-67
2022/10/20 09:58:29;;;;;;;8.57;7.47;;;10.60;89.50;;;;;;5011291;28;20049;-67
2022/10/20 10:01:02;;;;;;;11.18;9.30;;;10.60;90.20;;;;;;5019432;28;20049;-68
2022/10/20 10:03:36;;;;;;;11.30;8.17;;;10.60;90.50;;;;;;5024588;28;20469;-68
2022/10/20 10:06:26;;;;;;;13.55;8.93;;;10.70;89.30;;;;;;5028006;28;20288;-69
2022/10/20 10:08:53;;;;;;;13.40;8.63;;;10.70;89.40;;;;;;5014102;28;20041;-68
2022/10/20 10:11:21;;;;;;;12.40;7.85;;;10.80;90.20;;;;;;5037096;28;20042;-69
2022/10/20 10:13:50;;;;;;;12.70;8.63;;;10.80;90.00;;;;;;5020993;28;20052;-68
2022/10/20 10:16:21;;;;;;;13.53;8.03;;;10.90;89.20;;;;;;5018407;28;20387;-67
2022/10/20 10:19:03;;;;;;;13.50;8.10;;;11.10;89.70;;;;;;5013844;28;20292;-68
2022/10/20 10:21:42;;;;;;;10.77;8.20;;;11.20;89.80;;;;;;5027419;28;20625;-68
2022/10/20 10:24:45;;;;;;;12.17;8.10;;;11.40;89.40;;;;;;5005879;28;20318;-68
2022/10/20 10:27:27;;;;;;;12.87;8.23;;;11.50;88.60;;;;;;5019267;28;20291;-68
2022/10/20 10:29:55;;;;;;;10.50;8.00;;;11.70;87.70;;;;;;5015985;28;20345;-68
2022/10/20 10:32:29;;;;;;;13.20;9.37;;;11.80;87.40;;;;;;5036396;28;20326;-68
2022/10/20 10:35:11;;;;;;;11.37;8.47;;;11.90;88.20;;;;;;5023683;28;20322;-68
2022/10/20 10:37:40;;;;;;;9.67;8.00;;;12.10;87.20;;;;;;5030392;28;20290;-68
2022/10/20 10:40:35;;;;;;;11.37;8.03;;;12.20;88.00;;;;;;5023271;28;20291;-68
2022/10/20 10:43:16;;;;;;;11.90;8.10;;;12.30;87.30;;;;;;4989054;28;20299;-68
2022/10/20 10:45:50;;;;;;;11.03;8.30;;;12.40;87.40;;;;;;5032392;28;20791;-68
2022/10/20 10:48:31;;;;;;;12.65;9.25;;;12.50;87.00;;;;;;5016997;28;21106;-68
2022/10/20 10:51:09;;;;;;;9.43;7.80;;;12.50;86.30;;;;;;5023010;28;20624;-68
2022/10/20 10:54:10;;;;;;;10.77;8.23;;;12.60;86.50;;;;;;5005806;28;20343;-70
2022/10/20 10:56:42;;;;;;;10.77;7.90;;;12.70;84.50;;;;;;4996467;28;20279;-68
2022/10/20 10:59:26;;;;;;;10.80;7.73;;;12.80;85.20;;;;;;5033400;28;20283;-69
2022/10/20 11:01:54;;;;;;;9.63;7.97;;;12.90;85.50;;;;;;5045536;28;20331;-68
2022/10/20 11:04:42;;;;;;;13.10;8.47;;;12.90;84.50;;;;;;5026522;28;21029;-68
2022/10/20 11:07:34;;;;;;;10.60;7.80;;;13.00;85.20;;;;;;5040012;28;20332;-68
2022/10/20 11:10:23;;;;;;;11.07;8.20;;;13.00;85.00;;;;;;5026931;28;20315;-68
2022/10/20 11:13:22;;;;;;;13.10;8.40;;;13.10;85.30;;;;;;5027671;28;20403;-69
2022/10/20 11:16:23;;;;;;;9.67;8.00;;;13.10;84.60;;;;;;5014549;28;20281;-70
2022/10/20 11:18:57;;;;;;;10.97;8.27;;;13.20;84.50;;;;;;5018796;28;20322;-68
2022/10/20 11:21:57;;;;;;;10.70;8.40;;;13.20;84.90;;;;;;5025967;28;20668;-68
2022/10/20 11:24:34;;;;;;;13.17;8.27;;;13.20;84.90;;;;;;5035737;28;20045;-69
2022/10/20 11:27:13;;;;;;;12.33;8.00;;;13.20;85.00;;;;;;5013662;28;20806;-69
2022/10/20 11:29:45;;;;;;;9.73;7.47;;;13.20;84.90;;;;;;5024857;28;20287;-69
2022/10/20 11:32:20;;;;;;;11.03;8.10;;;13.20;84.80;;;;;;5033313;28;20700;-69
2022/10/20 11:35:14;;;;;;;13.25;8.23;;;13.20;85.30;;;;;;5025549;28;20280;-69
2022/10/20 11:38:05;;;;;;;11.97;8.07;;;13.20;85.50;;;;;;5026941;28;20348;-69
2022/10/20 11:40:38;;;;;;;10.20;7.57;;;13.10;85.70;;;;;;5040870;28;20699;-69
2022/10/20 11:43:03;;;;;;;15.17;9.17;;;13.10;85.40;;;;;;5026298;28;20643;-69
2022/10/20 11:45:38;;;;;;;11.37;7.73;;;13.00;85.50;;;;;;5023387;28;20948;-69
2022/10/20 11:48:29;;;;;;;11.70;8.35;;;12.90;85.00;;;;;;5027565;28;20056;-68
2022/10/20 11:51:04;;;;;;;14.13;9.53;;;12.90;85.00;;;;;;5020117;28;20041;-69
2022/10/20 11:54:00;;;;;;;12.55;9.13;;;12.80;85.70;;;;;;5024049;28;20294;-69
2022/10/20 11:57:01;;;;;;;11.33;8.40;;;12.80;86.40;;;;;;5023335;28;20060;-68
2022/10/20 12:00:07;;;;;;;13.00;8.70;;;12.70;86.20;;;;;;5038372;28;20290;-68
2022/10/20 12:03:10;;;;;;;11.47;8.37;;;12.70;86.70;;;;;;5008856;28;20288;-69
2022/10/20 12:06:15;;;;;;;12.93;8.50;;;12.60;86.90;;;;;;5016335;28;20358;-69
2022/10/20 12:08:49;;;;;;;13.93;8.97;;;12.60;87.50;;;;;;5028275;28;20292;-69
2022/10/20 12:11:40;;;;;;;11.90;8.48;;;12.50;87.70;;;;;;5044311;28;20371;-68
2022/10/20 12:14:15;;;;;;;9.97;8.73;;;12.40;88.20;;;;;;5025819;28;20046;-68
2022/10/20 12:16:53;;;;;;;11.25;9.80;;;12.30;88.90;;;;;;5025047;28;20339;-70
2022/10/20 12:19:21;;;;;;;15.53;10.23;;;12.30;90.10;;;;;;5023097;28;20037;-68
2022/10/20 12:22:00;;;;;;;14.40;9.63;;;12.20;90.80;;;;;;5024184;28;20695;-68
2022/10/20 12:24:35;;;;;;;13.80;9.70;;;12.20;91.30;;;;;;5022535;28;20358;-68
2022/10/20 12:27:07;;;;;;;15.90;10.03;;;12.10;92.30;;;;;;5024129;28;20276;-69
2022/10/20 12:29:45;;;;;;;14.10;9.77;;;12.10;93.00;;;;;;5023695;28;20284;-68
2022/10/20 12:32:35;;;;;;;13.90;10.27;;;12.00;93.80;;;;;;5034425;28;20311;-69
2022/10/20 12:35:09;;;;;;;16.00;10.17;;;12.00;94.50;;;;;;5007424;28;20368;-68
2022/10/20 12:37:37;;;;;;;13.67;9.97;;;11.90;95.30;;;;;;5037233;28;20284;-69
2022/10/20 12:40:06;;;;;;;17.40;11.27;;;11.90;95.30;;;;;;5022572;28;20284;-68
2022/10/20 12:42:38;;;;;;;17.57;11.37;;;11.80;96.10;;;;;;5023476;28;20288;-68
2022/10/20 12:45:07;;;;;;;17.03;10.70;;;11.80;96.10;;;;;;5024834;28;20632;-68
2022/10/20 12:47:35;;;;;;;13.10;10.83;;;11.80;96.80;;;;;;5023950;28;20352;-68
2022/10/20 12:50:03;;;;;;;14.67;10.70;;;11.70;97.60;;;;;;5005813;28;20283;-68
2022/10/20 12:52:35;;;;;;;15.30;11.80;;;11.70;97.90;;;;;;5019860;28;20300;-68
2022/10/20 12:55:20;;;;;;;16.03;10.93;;;11.70;98.40;;;;;;5039304;28;20298;-69
2022/10/20 12:57:46;;;;;;;;;;;11.70;98.40;;;;;;5024022;28;20295;-68
2022/10/20 13:00:18;;;;;;;15.43;10.93;;;11.60;99.70;;;;;;5038597;28;19924;-69
2022/10/20 13:02:54;;;;;;;17.60;11.27;;;11.60;99.90;;;;;;5015329;28;20124;-69
2022/10/20 13:05:46;;;;;;;20.40;11.50;;;11.60;99.90;;;;;;5023520;28;20304;-69